createdAt,value
2022-10-23T00:00:03.623Z,83
2022-10-23T00:20:02.316Z,84
2022-10-23T00:40:02.748Z,84
2022-10-23T01:00:03.000Z,84
2022-10-23T01:20:02.544Z,84
2022-10-23T01:40:02.930Z,84
2022-10-23T02:00:02.229Z,84
2022-10-23T02:20:02.678Z,84
2022-10-23T02:40:03.108Z,84
2022-10-23T03:00:02.342Z,84
2022-10-23T03:20:03.012Z,84
2022-10-23T03:40:02.561Z,84
2022-10-23T04:00:03.019Z,84
2022-10-23T04:20:03.039Z,83
2022-10-23T04:40:02.323Z,83
2022-10-23T05:00:02.652Z,82
2022-10-23T05:20:02.552Z,82
2022-10-23T05:40:02.835Z,81
2022-10-23T06:00:03.253Z,81
2022-10-23T06:20:02.714Z,81
2022-10-23T06:40:03.202Z,81
2022-10-23T07:00:03.586Z,81
2022-10-23T07:20:02.367Z,81
2022-10-23T07:40:02.807Z,81
2022-10-23T08:00:03.303Z,82
2022-10-23T08:20:03.100Z,83
2022-10-23T08:40:02.513Z,82
2022-10-23T09:00:02.872Z,80
2022-10-23T09:20:02.952Z,76
2022-10-23T09:40:02.461Z,72
2022-10-23T10:00:03.100Z,68
2022-10-23T10:20:07.071Z,65
2022-10-23T10:40:02.751Z,64
2022-10-23T11:00:03.196Z,61
2022-10-23T11:20:03.114Z,60
2022-10-23T11:40:02.677Z,61
2022-10-23T12:00:03.216Z,61
2022-10-23T12:20:03.197Z,61
2022-10-23T12:40:02.559Z,60
2022-10-23T13:00:03.208Z,61
2022-10-23T13:20:02.738Z,63
2022-10-23T13:40:03.389Z,64
2022-10-23T14:00:02.949Z,65
2022-10-23T14:20:05.927Z,66
2022-10-23T14:40:02.756Z,67
2022-10-23T15:00:03.474Z,68
2022-10-23T15:20:03.129Z,69
2022-10-23T15:40:02.931Z,70
2022-10-23T16:00:02.394Z,71
2022-10-23T16:20:03.352Z,72
2022-10-23T16:40:02.728Z,73
2022-10-23T17:00:03.424Z,74
2022-10-23T17:20:03.929Z,74
2022-10-23T17:40:02.688Z,75
2022-10-23T18:00:03.143Z,75
2022-10-23T18:20:02.662Z,75
2022-10-23T18:40:03.241Z,74
2022-10-23T19:00:03.962Z,74
2022-10-23T19:20:02.876Z,73
2022-10-23T19:40:02.516Z,73
2022-10-23T20:00:02.856Z,73
2022-10-23T20:20:02.394Z,73
2022-10-23T20:40:02.943Z,73
2022-10-23T21:00:02.624Z,74
2022-10-23T21:20:02.294Z,74
2022-10-23T21:40:02.699Z,75
2022-10-23T22:00:03.104Z,75
2022-10-23T22:20:02.540Z,76
2022-10-23T22:40:02.853Z,77
2022-10-23T23:00:03.545Z,77
2022-10-23T23:20:02.973Z,77
2022-10-23T23:40:03.201Z,78
